VLG6004 LIRQ-LEBL
Flight info
| Callsign | VLG6004 |
|---|---|
| Flight time | 1h 30m |
| Altitude | 34000 |
| Route | BIBNO DCT BEROK DCT ENOBA/N0452F350 DCT GEKBA DCT VAMTU DCT KOLON DCT GANGU DCT PADKO DCT DIVKO DCT NILDU N975 BISBA |
| Aircraft | A319/M-SDE3FGHIRWY/LB1 |
Departure
| Time | 2026-05-07 12:21 |
|---|---|
| Airport | Florence Airport, Peretola (LIRQ) |
Arrival
| Time | 2026-05-07 13:51 |
|---|---|
| Airport | Josep Tarradellas Barcelona-El Prat Airport (LEBL) |
| Time | Latitude | Longitude | Altitude | Speed | Heading |
|---|---|---|---|---|---|
| 2026-05-07 11:53 | 43.80295 | 11.20032 | 127 ft | 0 kts | 159° |
| 2026-05-07 12:14 | 43.80313 | 11.20022 | 125 ft | 4 kts | 154° |
| 2026-05-07 12:14 | 43.80336 | 11.20003 | 124 ft | 4 kts | 136° |
| 2026-05-07 12:15 | 43.80349 | 11.19975 | 126 ft | 3 kts | 80° |
| 2026-05-07 12:15 | 43.80347 | 11.19963 | 124 ft | 1 kts | 73° |
| 2026-05-07 12:17 | 43.80348 | 11.19964 | 124 ft | 1 kts | 73° |
| 2026-05-07 12:17 | 43.80361 | 11.20014 | 126 ft | 10 kts | 58° |
| 2026-05-07 12:17 | 43.80420 | 11.20040 | 131 ft | 8 kts | 7° |
| 2026-05-07 12:17 | 43.80480 | 11.20044 | 133 ft | 9 kts | 340° |
| 2026-05-07 12:18 | 43.80535 | 11.19991 | 133 ft | 11 kts | 354° |
| 2026-05-07 12:18 | 43.80629 | 11.20019 | 132 ft | 16 kts | 15° |
| 2026-05-07 12:18 | 43.80738 | 11.20101 | 133 ft | 20 kts | 47° |
| 2026-05-07 12:18 | 43.80848 | 11.20268 | 128 ft | 29 kts | 48° |
| 2026-05-07 12:19 | 43.80996 | 11.20495 | 124 ft | 33 kts | 49° |
| 2026-05-07 12:19 | 43.81145 | 11.20727 | 127 ft | 32 kts | 48° |
| 2026-05-07 12:19 | 43.81289 | 11.20948 | 133 ft | 30 kts | 48° |
| 2026-05-07 12:19 | 43.81427 | 11.21163 | 133 ft | 30 kts | 47° |
| 2026-05-07 12:20 | 43.81497 | 11.21327 | 136 ft | 13 kts | 52° |
| 2026-05-07 12:20 | 43.81524 | 11.21316 | 137 ft | 5 kts | 264° |
| 2026-05-07 12:20 | 43.81512 | 11.21295 | 134 ft | 0 kts | 229° |
| 2026-05-07 12:20 | 43.81508 | 11.21288 | 133 ft | 10 kts | 229° |
| 2026-05-07 12:21 | 43.81243 | 11.20878 | 133 ft | 104 kts | 228° |
| 2026-05-07 12:21 | 43.80596 | 11.19868 | 319 ft | 158 kts | 229° |
| 2026-05-07 12:21 | 43.80043 | 11.18592 | 1152 ft | 158 kts | 259° |
| 2026-05-07 12:21 | 43.80222 | 11.17054 | 1633 ft | 179 kts | 293° |
| 2026-05-07 12:22 | 43.80677 | 11.15323 | 2071 ft | 201 kts | 280° |
| 2026-05-07 12:22 | 43.80848 | 11.13336 | 2817 ft | 211 kts | 272° |
| 2026-05-07 12:22 | 43.80927 | 11.11327 | 3807 ft | 212 kts | 272° |
| 2026-05-07 12:22 | 43.80995 | 11.09268 | 4733 ft | 216 kts | 272° |
| 2026-05-07 12:23 | 43.81070 | 11.07185 | 5666 ft | 218 kts | 272° |
| 2026-05-07 12:23 | 43.81155 | 11.05083 | 6587 ft | 220 kts | 273° |
| 2026-05-07 12:23 | 43.81320 | 11.02966 | 7430 ft | 224 kts | 285° |
| 2026-05-07 12:23 | 43.82049 | 11.01051 | 8250 ft | 230 kts | 310° |
| 2026-05-07 12:24 | 43.82879 | 11.00081 | 8823 ft | 235 kts | 327° |
| 2026-05-07 12:24 | 43.84446 | 10.99373 | 9671 ft | 244 kts | 353° |
| 2026-05-07 12:24 | 43.86137 | 10.99422 | 10492 ft | 248 kts | 360° |
| 2026-05-07 12:24 | 43.87868 | 10.99522 | 11304 ft | 250 kts | 359° |
| 2026-05-07 12:25 | 43.89618 | 10.99618 | 12122 ft | 253 kts | 359° |
| 2026-05-07 12:25 | 43.91389 | 10.99711 | 12942 ft | 256 kts | 359° |
| 2026-05-07 12:25 | 43.93198 | 10.99805 | 13610 ft | 268 kts | 359° |
| 2026-05-07 12:25 | 43.95146 | 10.99902 | 13923 ft | 292 kts | 359° |
| 2026-05-07 12:26 | 43.97260 | 11.00009 | 14173 ft | 316 kts | 359° |
| 2026-05-07 12:26 | 43.99540 | 11.00004 | 14393 ft | 337 kts | 349° |
| 2026-05-07 12:26 | 44.01803 | 10.99054 | 14817 ft | 344 kts | 329° |
| 2026-05-07 12:26 | 44.03716 | 10.97093 | 15471 ft | 343 kts | 310° |
| 2026-05-07 12:27 | 44.05061 | 10.94379 | 16203 ft | 342 kts | 296° |
| 2026-05-07 12:27 | 44.06199 | 10.91460 | 16962 ft | 344 kts | 296° |
| 2026-05-07 12:27 | 44.07336 | 10.88525 | 17735 ft | 346 kts | 296° |
| 2026-05-07 12:27 | 44.08480 | 10.85564 | 18440 ft | 348 kts | 296° |
| 2026-05-07 12:28 | 44.09630 | 10.82583 | 19067 ft | 351 kts | 295° |
| 2026-05-07 12:28 | 44.10789 | 10.79577 | 19709 ft | 354 kts | 295° |
| 2026-05-07 12:28 | 44.11961 | 10.76542 | 20360 ft | 357 kts | 295° |
| 2026-05-07 12:28 | 44.13141 | 10.73487 | 21031 ft | 360 kts | 295° |
| 2026-05-07 12:29 | 44.14331 | 10.70407 | 21678 ft | 363 kts | 294° |
| 2026-05-07 12:29 | 44.15530 | 10.67299 | 22328 ft | 365 kts | 293° |
| 2026-05-07 12:29 | 44.16484 | 10.64040 | 22965 ft | 363 kts | 283° |
| 2026-05-07 12:29 | 44.16953 | 10.60639 | 23552 ft | 362 kts | 272° |
| 2026-05-07 12:30 | 44.16981 | 10.57090 | 24051 ft | 363 kts | 266° |
| 2026-05-07 12:30 | 44.16915 | 10.53621 | 24577 ft | 364 kts | 266° |
| 2026-05-07 12:30 | 44.16847 | 10.50088 | 25087 ft | 366 kts | 266° |
| 2026-05-07 12:30 | 44.16778 | 10.46532 | 25606 ft | 368 kts | 266° |
| 2026-05-07 12:31 | 44.16707 | 10.42972 | 26081 ft | 370 kts | 266° |
| 2026-05-07 12:31 | 44.16634 | 10.39383 | 26551 ft | 371 kts | 266° |
| 2026-05-07 12:31 | 44.16570 | 10.35781 | 27023 ft | 373 kts | 268° |
| 2026-05-07 12:31 | 44.16773 | 10.32158 | 27496 ft | 377 kts | 274° |
| 2026-05-07 12:32 | 44.17050 | 10.28523 | 27984 ft | 378 kts | 273° |
| 2026-05-07 12:32 | 44.17324 | 10.24866 | 28450 ft | 380 kts | 273° |
| 2026-05-07 12:32 | 44.17599 | 10.21189 | 28906 ft | 382 kts | 273° |
| 2026-05-07 12:32 | 44.17872 | 10.17491 | 29364 ft | 384 kts | 273° |
| 2026-05-07 12:33 | 44.18413 | 10.10049 | 30188 ft | 388 kts | 273° |
| 2026-05-07 12:33 | 44.18684 | 10.06304 | 30530 ft | 390 kts | 273° |
| 2026-05-07 12:33 | 44.18955 | 10.02535 | 30884 ft | 391 kts | 273° |
| 2026-05-07 12:34 | 44.19226 | 9.98754 | 31194 ft | 393 kts | 273° |
| 2026-05-07 12:34 | 44.19497 | 9.94951 | 31478 ft | 396 kts | 273° |
| 2026-05-07 12:34 | 44.19765 | 9.91134 | 31812 ft | 396 kts | 273° |
| 2026-05-07 12:34 | 44.20032 | 9.87328 | 32243 ft | 394 kts | 273° |
| 2026-05-07 12:35 | 44.20300 | 9.83530 | 32720 ft | 392 kts | 273° |
| 2026-05-07 12:35 | 44.20565 | 9.79747 | 33181 ft | 391 kts | 272° |
| 2026-05-07 12:35 | 44.20827 | 9.75986 | 33680 ft | 389 kts | 272° |
| 2026-05-07 12:35 | 44.21085 | 9.72243 | 34176 ft | 387 kts | 272° |
| 2026-05-07 12:36 | 44.21341 | 9.68504 | 34540 ft | 387 kts | 272° |
| 2026-05-07 12:36 | 44.21597 | 9.64771 | 34831 ft | 388 kts | 272° |
| 2026-05-07 12:36 | 44.21855 | 9.61010 | 34982 ft | 390 kts | 273° |
| 2026-05-07 12:36 | 44.22112 | 9.57279 | 35017 ft | 383 kts | 272° |
| 2026-05-07 12:37 | 44.22609 | 9.49928 | 35019 ft | 380 kts | 272° |
| 2026-05-07 12:37 | 44.23097 | 9.42596 | 35013 ft | 380 kts | 272° |
| 2026-05-07 12:38 | 44.23578 | 9.35261 | 35017 ft | 380 kts | 272° |
| 2026-05-07 12:38 | 44.24058 | 9.27928 | 35016 ft | 380 kts | 272° |
| 2026-05-07 12:39 | 44.24536 | 9.20633 | 35008 ft | 380 kts | 272° |
| 2026-05-07 12:39 | 44.25012 | 9.13244 | 35008 ft | 380 kts | 272° |
| 2026-05-07 12:40 | 44.25473 | 9.05943 | 35004 ft | 380 kts | 272° |
| 2026-05-07 12:40 | 44.25935 | 8.98592 | 35003 ft | 380 kts | 272° |
| 2026-05-07 12:41 | 44.26392 | 8.91231 | 35000 ft | 380 kts | 272° |
| 2026-05-07 12:41 | 44.26842 | 8.83879 | 34998 ft | 381 kts | 272° |
| 2026-05-07 12:42 | 44.27292 | 8.76518 | 34997 ft | 381 kts | 272° |
| 2026-05-07 12:42 | 44.27741 | 8.69153 | 34994 ft | 381 kts | 272° |
| 2026-05-07 12:43 | 44.28177 | 8.61787 | 34995 ft | 381 kts | 272° |
| 2026-05-07 12:43 | 44.28609 | 8.54417 | 34994 ft | 381 kts | 272° |
| 2026-05-07 12:44 | 44.29041 | 8.47036 | 34995 ft | 381 kts | 272° |
| 2026-05-07 12:44 | 44.29467 | 8.39665 | 34992 ft | 381 kts | 272° |
| 2026-05-07 12:45 | 44.29885 | 8.32274 | 34990 ft | 381 kts | 272° |
| 2026-05-07 12:45 | 44.29663 | 8.24918 | 34984 ft | 379 kts | 264° |
| 2026-05-07 12:46 | 44.29266 | 8.17571 | 34983 ft | 380 kts | 264° |
| 2026-05-07 12:46 | 44.28868 | 8.10219 | 34984 ft | 380 kts | 264° |
| 2026-05-07 12:47 | 44.28463 | 8.02868 | 34984 ft | 380 kts | 264° |
| 2026-05-07 12:47 | 44.28046 | 7.95519 | 34978 ft | 380 kts | 264° |
| 2026-05-07 12:48 | 44.27619 | 7.88166 | 34967 ft | 380 kts | 264° |
| 2026-05-07 12:48 | 44.26823 | 7.80896 | 34968 ft | 380 kts | 251° |
| 2026-05-07 12:49 | 44.24199 | 7.74578 | 34962 ft | 384 kts | 231° |
| 2026-05-07 12:49 | 44.20235 | 7.69522 | 34959 ft | 387 kts | 225° |
| 2026-05-07 12:50 | 44.16192 | 7.64555 | 34954 ft | 387 kts | 225° |
| 2026-05-07 12:50 | 44.12473 | 7.59194 | 34953 ft | 384 kts | 232° |
| 2026-05-07 12:51 | 44.08974 | 7.53568 | 34950 ft | 384 kts | 232° |
| 2026-05-07 12:51 | 44.05464 | 7.47957 | 34948 ft | 385 kts | 231° |
| 2026-05-07 12:52 | 44.01930 | 7.42333 | 34981 ft | 386 kts | 232° |
| 2026-05-07 12:52 | 43.98398 | 7.36714 | 34981 ft | 386 kts | 231° |
| 2026-05-07 12:53 | 43.94868 | 7.31104 | 34985 ft | 385 kts | 231° |
| 2026-05-07 12:53 | 43.91330 | 7.25498 | 34984 ft | 386 kts | 231° |
| 2026-05-07 12:54 | 43.87791 | 7.19895 | 34996 ft | 387 kts | 231° |
| 2026-05-07 12:54 | 43.84239 | 7.14280 | 35005 ft | 387 kts | 231° |
| 2026-05-07 12:55 | 43.80701 | 7.08694 | 34997 ft | 386 kts | 231° |
| 2026-05-07 12:55 | 43.77178 | 7.03160 | 34997 ft | 386 kts | 231° |
| 2026-05-07 12:56 | 43.73636 | 6.97587 | 34993 ft | 385 kts | 232° |
| 2026-05-07 12:56 | 43.70984 | 6.91237 | 34993 ft | 382 kts | 248° |
| 2026-05-07 12:57 | 43.68995 | 6.84424 | 34992 ft | 382 kts | 248° |
| 2026-05-07 12:57 | 43.66991 | 6.77612 | 34979 ft | 382 kts | 248° |
| 2026-05-07 12:58 | 43.64975 | 6.70810 | 34973 ft | 382 kts | 248° |
| 2026-05-07 12:58 | 43.62962 | 6.64024 | 34971 ft | 382 kts | 248° |
| 2026-05-07 12:59 | 43.60943 | 6.57246 | 34950 ft | 382 kts | 248° |
| 2026-05-07 12:59 | 43.58922 | 6.50465 | 34952 ft | 382 kts | 248° |
| 2026-05-07 13:00 | 43.56905 | 6.43689 | 34957 ft | 382 kts | 247° |
| 2026-05-07 13:00 | 43.54889 | 6.36956 | 34957 ft | 382 kts | 247° |
| 2026-05-07 13:01 | 43.52858 | 6.30197 | 34955 ft | 382 kts | 247° |
| 2026-05-07 13:01 | 43.50821 | 6.23437 | 34943 ft | 382 kts | 247° |
| 2026-05-07 13:02 | 43.48782 | 6.16674 | 34949 ft | 382 kts | 247° |
| 2026-05-07 13:02 | 43.46738 | 6.09922 | 34953 ft | 382 kts | 247° |
| 2026-05-07 13:03 | 43.44686 | 6.03171 | 34943 ft | 382 kts | 247° |
| 2026-05-07 13:03 | 43.42631 | 5.96421 | 34945 ft | 383 kts | 247° |
| 2026-05-07 13:04 | 43.40565 | 5.89655 | 34946 ft | 383 kts | 247° |
| 2026-05-07 13:04 | 43.38500 | 5.82907 | 34955 ft | 383 kts | 246° |
| 2026-05-07 13:05 | 43.36432 | 5.76163 | 34954 ft | 383 kts | 246° |
| 2026-05-07 13:05 | 43.34419 | 5.69610 | 34957 ft | 383 kts | 246° |
| 2026-05-07 13:06 | 43.32344 | 5.62872 | 34971 ft | 383 kts | 246° |
| 2026-05-07 13:06 | 43.30255 | 5.56134 | 34983 ft | 383 kts | 246° |
| 2026-05-07 13:07 | 43.28166 | 5.49403 | 34986 ft | 383 kts | 246° |
| 2026-05-07 13:07 | 43.26080 | 5.42669 | 34994 ft | 383 kts | 246° |
| 2026-05-07 13:08 | 43.23987 | 5.35945 | 34996 ft | 384 kts | 246° |
| 2026-05-07 13:08 | 43.21888 | 5.29224 | 34993 ft | 383 kts | 246° |
| 2026-05-07 13:09 | 43.19791 | 5.22518 | 34987 ft | 383 kts | 246° |
| 2026-05-07 13:09 | 43.17687 | 5.15820 | 34988 ft | 382 kts | 246° |
| 2026-05-07 13:10 | 43.15587 | 5.09134 | 34993 ft | 382 kts | 246° |
| 2026-05-07 13:10 | 43.13839 | 5.03575 | 34999 ft | 382 kts | 246° |
| 2026-05-07 13:11 | 43.11384 | 4.95810 | 34994 ft | 382 kts | 245° |
| 2026-05-07 13:11 | 43.09269 | 4.89135 | 34992 ft | 382 kts | 245° |
| 2026-05-07 13:12 | 43.07492 | 4.83561 | 35004 ft | 382 kts | 245° |
| 2026-05-07 13:12 | 43.04903 | 4.77196 | 35006 ft | 391 kts | 231° |
| 2026-05-07 13:13 | 43.00933 | 4.72016 | 35007 ft | 397 kts | 223° |
| 2026-05-07 13:13 | 42.96791 | 4.67023 | 35007 ft | 397 kts | 223° |
| 2026-05-07 13:14 | 42.92662 | 4.62042 | 35011 ft | 396 kts | 223° |
| 2026-05-07 13:14 | 42.88559 | 4.57086 | 35009 ft | 396 kts | 223° |
| 2026-05-07 13:15 | 42.84427 | 4.52112 | 35010 ft | 395 kts | 223° |
| 2026-05-07 13:15 | 42.80304 | 4.47166 | 35004 ft | 395 kts | 223° |
| 2026-05-07 13:16 | 42.76180 | 4.42226 | 35005 ft | 395 kts | 223° |
| 2026-05-07 13:16 | 42.72058 | 4.37295 | 35006 ft | 394 kts | 223° |
| 2026-05-07 13:17 | 42.67942 | 4.32378 | 35008 ft | 394 kts | 223° |
| 2026-05-07 13:17 | 42.63817 | 4.27477 | 35006 ft | 393 kts | 223° |
| 2026-05-07 13:18 | 42.59702 | 4.22583 | 35009 ft | 393 kts | 223° |
| 2026-05-07 13:18 | 42.55621 | 4.17730 | 35012 ft | 393 kts | 223° |
| 2026-05-07 13:19 | 42.51509 | 4.12859 | 35015 ft | 392 kts | 223° |
| 2026-05-07 13:19 | 42.47399 | 4.08000 | 35019 ft | 392 kts | 223° |
| 2026-05-07 13:20 | 42.43294 | 4.03162 | 35021 ft | 391 kts | 223° |
| 2026-05-07 13:20 | 42.39199 | 3.98331 | 34860 ft | 389 kts | 223° |
| 2026-05-07 13:21 | 42.37170 | 3.95942 | 34511 ft | 383 kts | 223° |
| 2026-05-07 13:21 | 42.35174 | 3.93596 | 34018 ft | 378 kts | 223° |
| 2026-05-07 13:21 | 42.33202 | 3.91276 | 33481 ft | 373 kts | 223° |
| 2026-05-07 13:21 | 42.31263 | 3.88997 | 32997 ft | 367 kts | 223° |
| 2026-05-07 13:22 | 42.29349 | 3.86755 | 32528 ft | 361 kts | 223° |
| 2026-05-07 13:22 | 42.27464 | 3.84547 | 32064 ft | 356 kts | 223° |
| 2026-05-07 13:22 | 42.25605 | 3.82374 | 31562 ft | 352 kts | 223° |
| 2026-05-07 13:22 | 42.23762 | 3.80220 | 31051 ft | 349 kts | 223° |
| 2026-05-07 13:23 | 42.21935 | 3.78083 | 30547 ft | 346 kts | 223° |
| 2026-05-07 13:23 | 42.20122 | 3.75964 | 30046 ft | 344 kts | 223° |
| 2026-05-07 13:23 | 42.18319 | 3.73859 | 29505 ft | 341 kts | 223° |
| 2026-05-07 13:23 | 42.16536 | 3.71781 | 29036 ft | 337 kts | 223° |
| 2026-05-07 13:24 | 42.14771 | 3.69724 | 28560 ft | 334 kts | 223° |
| 2026-05-07 13:24 | 42.13016 | 3.67680 | 28090 ft | 332 kts | 223° |
| 2026-05-07 13:24 | 42.11276 | 3.65653 | 27643 ft | 330 kts | 223° |
| 2026-05-07 13:24 | 42.09609 | 3.63551 | 27205 ft | 326 kts | 229° |
| 2026-05-07 13:25 | 42.08262 | 3.61117 | 26808 ft | 324 kts | 239° |
| 2026-05-07 13:25 | 42.07238 | 3.58329 | 26498 ft | 340 kts | 245° |
| 2026-05-07 13:25 | 42.06274 | 3.55393 | 26158 ft | 345 kts | 245° |
| 2026-05-07 13:25 | 42.05300 | 3.52438 | 25812 ft | 346 kts | 245° |
| 2026-05-07 13:26 | 42.04320 | 3.49482 | 25467 ft | 346 kts | 245° |
| 2026-05-07 13:26 | 42.03333 | 3.46522 | 25119 ft | 346 kts | 245° |
| 2026-05-07 13:26 | 42.02357 | 3.43603 | 24773 ft | 346 kts | 245° |
| 2026-05-07 13:26 | 42.01373 | 3.40650 | 24433 ft | 346 kts | 245° |
| 2026-05-07 13:27 | 42.00388 | 3.37692 | 24089 ft | 346 kts | 245° |
| 2026-05-07 13:27 | 41.99405 | 3.34738 | 23739 ft | 346 kts | 245° |
| 2026-05-07 13:27 | 41.98419 | 3.31783 | 23366 ft | 346 kts | 245° |
| 2026-05-07 13:27 | 41.97433 | 3.28828 | 23015 ft | 346 kts | 245° |
| 2026-05-07 13:28 | 41.96449 | 3.25885 | 22662 ft | 345 kts | 245° |
| 2026-05-07 13:28 | 41.95468 | 3.22953 | 22315 ft | 344 kts | 245° |
| 2026-05-07 13:28 | 41.94618 | 3.19956 | 21973 ft | 344 kts | 253° |
| 2026-05-07 13:28 | 41.94069 | 3.16835 | 21634 ft | 343 kts | 255° |
| 2026-05-07 13:29 | 41.93533 | 3.13721 | 21291 ft | 342 kts | 255° |
| 2026-05-07 13:29 | 41.92997 | 3.10617 | 20945 ft | 341 kts | 255° |
| 2026-05-07 13:29 | 41.92457 | 3.07519 | 20610 ft | 340 kts | 255° |
| 2026-05-07 13:29 | 41.91916 | 3.04435 | 20272 ft | 339 kts | 255° |
| 2026-05-07 13:30 | 41.91377 | 3.01361 | 19935 ft | 338 kts | 255° |
| 2026-05-07 13:30 | 41.90839 | 2.98297 | 19606 ft | 337 kts | 255° |
| 2026-05-07 13:30 | 41.90300 | 2.95237 | 19265 ft | 336 kts | 255° |
| 2026-05-07 13:30 | 41.89762 | 2.92190 | 18927 ft | 335 kts | 255° |
| 2026-05-07 13:31 | 41.89225 | 2.89151 | 18595 ft | 334 kts | 255° |
| 2026-05-07 13:31 | 41.88691 | 2.86116 | 18253 ft | 333 kts | 255° |
| 2026-05-07 13:31 | 41.88161 | 2.83097 | 17891 ft | 332 kts | 255° |
| 2026-05-07 13:31 | 41.87630 | 2.80085 | 17561 ft | 331 kts | 255° |
| 2026-05-07 13:32 | 41.87098 | 2.77090 | 17226 ft | 329 kts | 255° |
| 2026-05-07 13:32 | 41.86568 | 2.74108 | 16900 ft | 328 kts | 255° |
| 2026-05-07 13:32 | 41.86040 | 2.71137 | 16571 ft | 327 kts | 255° |
| 2026-05-07 13:32 | 41.85512 | 2.68178 | 16247 ft | 326 kts | 255° |
| 2026-05-07 13:33 | 41.84985 | 2.65233 | 15922 ft | 324 kts | 255° |
| 2026-05-07 13:33 | 41.84459 | 2.62300 | 15592 ft | 323 kts | 254° |
| 2026-05-07 13:33 | 41.83934 | 2.59378 | 15270 ft | 322 kts | 254° |
| 2026-05-07 13:33 | 41.83412 | 2.56466 | 14950 ft | 321 kts | 255° |
| 2026-05-07 13:34 | 41.82891 | 2.53564 | 14620 ft | 320 kts | 255° |
| 2026-05-07 13:34 | 41.81849 | 2.47780 | 13988 ft | 318 kts | 255° |
| 2026-05-07 13:34 | 41.81335 | 2.44941 | 13654 ft | 317 kts | 255° |
| 2026-05-07 13:35 | 41.80816 | 2.42067 | 13326 ft | 316 kts | 255° |
| 2026-05-07 13:35 | 41.80297 | 2.39205 | 13017 ft | 315 kts | 255° |
| 2026-05-07 13:35 | 41.79795 | 2.36432 | 12700 ft | 314 kts | 255° |
| 2026-05-07 13:35 | 41.79281 | 2.33592 | 12383 ft | 313 kts | 255° |
| 2026-05-07 13:36 | 41.78769 | 2.30776 | 12068 ft | 311 kts | 256° |
| 2026-05-07 13:36 | 41.78253 | 2.27966 | 11762 ft | 310 kts | 256° |
| 2026-05-07 13:36 | 41.77713 | 2.25181 | 11458 ft | 308 kts | 251° |
| 2026-05-07 13:36 | 41.76748 | 2.22634 | 11159 ft | 307 kts | 234° |
| 2026-05-07 13:37 | 41.75285 | 2.20561 | 10840 ft | 307 kts | 218° |
| 2026-05-07 13:37 | 41.73446 | 2.19139 | 10522 ft | 307 kts | 201° |
| 2026-05-07 13:37 | 41.71406 | 2.18312 | 10206 ft | 306 kts | 196° |
| 2026-05-07 13:37 | 41.69379 | 2.17552 | 9989 ft | 297 kts | 196° |
| 2026-05-07 13:38 | 41.67412 | 2.16814 | 9986 ft | 291 kts | 196° |
| 2026-05-07 13:38 | 41.65466 | 2.16082 | 9908 ft | 290 kts | 196° |
| 2026-05-07 13:38 | 41.63530 | 2.15350 | 9814 ft | 289 kts | 197° |
| 2026-05-07 13:38 | 41.61598 | 2.14617 | 9722 ft | 288 kts | 197° |
| 2026-05-07 13:39 | 41.59666 | 2.13883 | 9658 ft | 288 kts | 197° |
| 2026-05-07 13:39 | 41.57745 | 2.13153 | 9439 ft | 286 kts | 197° |
| 2026-05-07 13:39 | 41.55837 | 2.12431 | 9017 ft | 285 kts | 197° |
| 2026-05-07 13:39 | 41.53948 | 2.11651 | 8594 ft | 284 kts | 203° |
| 2026-05-07 13:40 | 41.52269 | 2.10348 | 8403 ft | 274 kts | 219° |
| 2026-05-07 13:40 | 41.50956 | 2.08596 | 8267 ft | 261 kts | 233° |
| 2026-05-07 13:40 | 41.49999 | 2.06601 | 8110 ft | 251 kts | 239° |
| 2026-05-07 13:40 | 41.49099 | 2.04628 | 7817 ft | 248 kts | 239° |
| 2026-05-07 13:41 | 41.48202 | 2.02672 | 7475 ft | 247 kts | 239° |
| 2026-05-07 13:41 | 41.47305 | 2.00721 | 7137 ft | 246 kts | 239° |
| 2026-05-07 13:41 | 41.46410 | 1.98779 | 6789 ft | 245 kts | 239° |
| 2026-05-07 13:41 | 41.45520 | 1.96845 | 6451 ft | 245 kts | 239° |
| 2026-05-07 13:42 | 41.44632 | 1.94915 | 6110 ft | 244 kts | 239° |
| 2026-05-07 13:42 | 41.43748 | 1.92995 | 5755 ft | 242 kts | 238° |
| 2026-05-07 13:42 | 41.42879 | 1.91108 | 5436 ft | 241 kts | 238° |
| 2026-05-07 13:42 | 41.41996 | 1.89190 | 5329 ft | 240 kts | 238° |
| 2026-05-07 13:43 | 41.41130 | 1.87312 | 5257 ft | 241 kts | 238° |
| 2026-05-07 13:43 | 41.40242 | 1.85383 | 5174 ft | 241 kts | 238° |
| 2026-05-07 13:43 | 41.39325 | 1.83515 | 5061 ft | 241 kts | 229° |
| 2026-05-07 13:43 | 41.38004 | 1.82189 | 4936 ft | 239 kts | 203° |
| 2026-05-07 13:44 | 41.36455 | 1.81406 | 4819 ft | 238 kts | 199° |
| 2026-05-07 13:44 | 41.34920 | 1.80653 | 4682 ft | 238 kts | 199° |
| 2026-05-07 13:44 | 41.33369 | 1.79895 | 4562 ft | 237 kts | 199° |
| 2026-05-07 13:44 | 41.31832 | 1.79144 | 4417 ft | 231 kts | 199° |
| 2026-05-07 13:45 | 41.30353 | 1.78419 | 4292 ft | 221 kts | 199° |
| 2026-05-07 13:45 | 41.28949 | 1.77689 | 4167 ft | 215 kts | 199° |
| 2026-05-07 13:45 | 41.27500 | 1.77504 | 4084 ft | 210 kts | 166° |
| 2026-05-07 13:45 | 41.26174 | 1.78282 | 4014 ft | 209 kts | 148° |
| 2026-05-07 13:46 | 41.24912 | 1.79239 | 3936 ft | 209 kts | 149° |
| 2026-05-07 13:46 | 41.23675 | 1.80218 | 3887 ft | 204 kts | 141° |
| 2026-05-07 13:46 | 41.22721 | 1.81588 | 3855 ft | 201 kts | 122° |
| 2026-05-07 13:46 | 41.22178 | 1.83286 | 3756 ft | 200 kts | 103° |
| 2026-05-07 13:47 | 41.22100 | 1.85122 | 3553 ft | 199 kts | 84° |
| 2026-05-07 13:47 | 41.22488 | 1.86880 | 3327 ft | 199 kts | 66° |
| 2026-05-07 13:47 | 41.23067 | 1.88549 | 3070 ft | 198 kts | 66° |
| 2026-05-07 13:47 | 41.23639 | 1.90202 | 2804 ft | 194 kts | 66° |
| 2026-05-07 13:48 | 41.24195 | 1.91809 | 2549 ft | 189 kts | 68° |
| 2026-05-07 13:48 | 41.24738 | 1.93386 | 2301 ft | 186 kts | 67° |
| 2026-05-07 13:48 | 41.25269 | 1.94926 | 2059 ft | 181 kts | 67° |
| 2026-05-07 13:48 | 41.25782 | 1.96413 | 1814 ft | 172 kts | 68° |
| 2026-05-07 13:49 | 41.26264 | 1.97814 | 1578 ft | 160 kts | 68° |
| 2026-05-07 13:49 | 41.26714 | 1.99114 | 1400 ft | 151 kts | 68° |
| 2026-05-07 13:49 | 41.27145 | 2.00371 | 1191 ft | 149 kts | 68° |
| 2026-05-07 13:49 | 41.27583 | 2.01641 | 966 ft | 152 kts | 70° |
| 2026-05-07 13:50 | 41.28021 | 2.02916 | 728 ft | 150 kts | 69° |
| 2026-05-07 13:50 | 41.28444 | 2.04151 | 540 ft | 144 kts | 69° |
| 2026-05-07 13:50 | 41.28851 | 2.05333 | 353 ft | 138 kts | 68° |
| 2026-05-07 13:50 | 41.29235 | 2.06461 | 170 ft | 134 kts | 68° |
| 2026-05-07 13:51 | 41.29614 | 2.07577 | 18 ft | 129 kts | 68° |
| 2026-05-07 13:51 | 41.29942 | 2.08534 | 8 ft | 95 kts | 65° |
| 2026-05-07 13:51 | 41.30127 | 2.09073 | 6 ft | 33 kts | 68° |
| 2026-05-07 13:51 | 41.30140 | 2.09348 | 4 ft | 18 kts | 104° |
| 2026-05-07 13:52 | 41.30073 | 2.09428 | 3 ft | 14 kts | 204° |
| 2026-05-07 13:52 | 41.30023 | 2.09318 | 3 ft | 14 kts | 245° |
| 2026-05-07 13:52 | 41.29981 | 2.09195 | 5 ft | 15 kts | 245° |
| 2026-05-07 13:52 | 41.29938 | 2.09068 | 4 ft | 15 kts | 245° |
| 2026-05-07 13:53 | 41.29894 | 2.08945 | 7 ft | 15 kts | 244° |
| 2026-05-07 13:53 | 41.29852 | 2.08815 | 4 ft | 16 kts | 246° |
| 2026-05-07 13:53 | 41.29804 | 2.08677 | 3 ft | 17 kts | 246° |
| 2026-05-07 13:53 | 41.29753 | 2.08530 | 3 ft | 18 kts | 246° |
| 2026-05-07 13:54 | 41.29701 | 2.08377 | 3 ft | 19 kts | 245° |
| 2026-05-07 13:54 | 41.29633 | 2.08235 | 3 ft | 18 kts | 200° |
| 2026-05-07 13:54 | 41.29515 | 2.08292 | 4 ft | 19 kts | 156° |
| 2026-05-07 13:54 | 41.29395 | 2.08365 | 3 ft | 19 kts | 155° |
| 2026-05-07 13:55 | 41.29270 | 2.08441 | 3 ft | 20 kts | 156° |
| 2026-05-07 13:55 | 41.29190 | 2.08412 | 3 ft | 13 kts | 249° |
| 2026-05-07 13:55 | 41.29172 | 2.08342 | 3 ft | 4 kts | 250° |
| 2026-05-07 13:55 | 41.29165 | 2.08318 | 3 ft | 0 kts | 250° |